Time;durP1;ratioP1;P1;durP2;ratioP2;P2;SDS_P1;SDS_P2;PMS_P1;PMS_P2;Temp;Humidity;BMP_temperature;BMP_pressure;BME280_temperature;BME280_humidity;BME280_pressure;Samples;Min_cycle;Max_cycle;Signal;HPM_P1;HPM_P2
2022/06/14 00:01:34;;;;;;;4.10;2.50;;;14.20;99.90;;;;;;5054937;28;20205;-59
2022/06/14 00:04:01;;;;;;;5.33;2.70;;;14.20;99.90;;;;;;5054474;28;20205;-58
2022/06/14 00:06:30;;;;;;;4.57;3.20;;;14.20;99.90;;;;;;5054309;28;20209;-58
2022/06/14 00:08:59;;;;;;;4.43;3.03;;;14.20;99.90;;;;;;5053957;28;20245;-58
2022/06/14 00:11:28;;;;;;;5.87;3.20;;;14.10;99.90;;;;;;5054352;28;20205;-58
2022/06/14 00:13:57;;;;;;;5.33;2.70;;;14.00;99.90;;;;;;5054542;28;20213;-58
2022/06/14 00:16:26;;;;;;;7.50;3.07;;;14.00;99.90;;;;;;5054066;28;20221;-58
2022/06/14 00:18:53;;;;;;;5.77;2.90;;;13.90;99.90;;;;;;5053649;28;20227;-58
2022/06/14 00:21:20;;;;;;;6.43;3.03;;;14.00;99.90;;;;;;5054203;28;20406;-58
2022/06/14 00:23:47;;;;;;;5.20;2.93;;;14.00;99.90;;;;;;5053959;28;20206;-57
2022/06/14 00:26:16;;;;;;;5.83;2.80;;;14.00;99.90;;;;;;5054262;28;20225;-58
2022/06/14 00:28:44;;;;;;;5.50;2.80;;;13.90;99.90;;;;;;5053132;28;20221;-58
2022/06/14 00:31:14;;;;;;;3.83;2.90;;;13.90;99.90;;;;;;5054043;28;20209;-58
2022/06/14 00:33:41;;;;;;;6.97;3.07;;;13.80;99.90;;;;;;5053782;28;20576;-58
2022/06/14 00:36:10;;;;;;;4.93;3.27;;;13.80;99.90;;;;;;5053374;28;20724;-57
2022/06/14 00:38:38;;;;;;;7.20;3.57;;;13.80;99.90;;;;;;5053088;28;20708;-58
2022/06/14 00:41:06;;;;;;;7.77;3.20;;;13.70;99.90;;;;;;5053541;28;20215;-57
2022/06/14 00:43:34;;;;;;;4.83;3.03;;;13.60;99.90;;;;;;5053744;28;20212;-57
2022/06/14 00:46:19;;;;;;;5.87;3.00;;;13.60;99.90;;;;;;5053514;28;20582;-57
2022/06/14 00:48:51;;;;;;;6.60;3.17;;;13.50;99.90;;;;;;5053355;28;20728;-58
2022/06/14 00:51:21;;;;;;;6.67;3.33;;;13.50;99.90;;;;;;5053696;28;20696;-58
2022/06/14 00:53:54;;;;;;;7.63;3.53;;;13.40;99.90;;;;;;5053853;28;20205;-58
2022/06/14 00:56:26;;;;;;;6.87;3.13;;;13.40;99.90;;;;;;5053836;28;20232;-58
2022/06/14 00:58:58;;;;;;;5.97;2.83;;;13.30;99.90;;;;;;5053494;28;20222;-58
2022/06/14 01:01:28;;;;;;;7.50;3.10;;;13.20;99.90;;;;;;5053782;28;20209;-58
2022/06/14 01:03:58;;;;;;;6.40;3.03;;;13.10;99.90;;;;;;5053400;28;20217;-58
2022/06/14 01:06:32;;;;;;;6.30;3.30;;;13.10;99.90;;;;;;5053406;28;20794;-58
2022/06/14 01:09:04;;;;;;;4.73;3.17;;;13.00;99.90;;;;;;5052914;28;20229;-57
2022/06/14 01:11:34;;;;;;;7.60;3.10;;;13.00;99.90;;;;;;5053351;28;20213;-58
2022/06/14 01:14:06;;;;;;;5.57;3.37;;;13.00;99.90;;;;;;5053471;28;20205;-58
2022/06/14 01:16:35;;;;;;;6.00;3.20;;;12.90;99.90;;;;;;5053040;28;20225;-58
2022/06/14 01:19:05;;;;;;;6.30;3.70;;;12.90;99.90;;;;;;5052769;28;20233;-58
2022/06/14 01:21:32;;;;;;;5.93;3.50;;;12.90;99.90;;;;;;5052950;28;20780;-57
2022/06/14 01:24:00;;;;;;;7.70;3.67;;;12.90;99.90;;;;;;5052860;28;20232;-58
2022/06/14 01:26:28;;;;;;;7.27;3.60;;;12.80;99.90;;;;;;5052916;28;20205;-57
2022/06/14 01:28:58;;;;;;;5.93;3.43;;;12.80;99.90;;;;;;5052847;28;20225;-57
2022/06/14 01:31:27;;;;;;;6.07;3.93;;;12.80;99.90;;;;;;5052724;28;20212;-57
2022/06/14 01:33:58;;;;;;;10.60;3.83;;;12.90;99.90;;;;;;5052671;28;20210;-57
2022/06/14 01:36:27;;;;;;;6.63;3.73;;;12.90;99.90;;;;;;5052461;28;20232;-58
2022/06/14 01:38:55;;;;;;;6.67;3.37;;;12.90;99.90;;;;;;5052107;28;20234;-57
2022/06/14 01:41:33;;;;;;;13.27;3.50;;;12.90;99.90;;;;;;5052778;28;20210;-58
2022/06/14 01:44:11;;;;;;;5.13;3.60;;;13.00;99.90;;;;;;5052562;28;20216;-58
2022/06/14 01:46:47;;;;;;;5.90;3.50;;;13.00;99.90;;;;;;5052246;28;20472;-57
2022/06/14 01:52:29;;;;;;;7.47;3.60;;;13.10;99.90;;;;;;5052342;28;20216;-57
2022/06/14 01:55:06;;;;;;;6.60;4.07;;;13.00;99.90;;;;;;5052535;28;20205;-58
2022/06/14 01:57:40;;;;;;;6.37;3.10;;;13.00;99.90;;;;;;5051934;28;20201;-57
2022/06/14 02:00:09;;;;;;;4.73;3.07;;;13.00;99.90;;;;;;5052767;28;20212;-58
2022/06/14 02:02:42;;;;;;;4.97;3.57;;;13.00;99.90;;;;;;5052753;28;20210;-57
2022/06/14 02:05:19;;;;;;;5.73;3.67;;;13.00;99.90;;;;;;5052452;28;20208;-58
2022/06/14 02:07:54;;;;;;;8.83;3.70;;;12.90;99.90;;;;;;5052144;28;20205;-57
2022/06/14 02:10:28;;;;;;;9.30;4.13;;;12.80;99.90;;;;;;5053149;28;20220;-57
2022/06/14 02:13:04;;;;;;;7.00;3.27;;;12.80;99.90;;;;;;5053317;28;20209;-57
2022/06/14 02:15:35;;;;;;;5.63;3.60;;;12.80;99.90;;;;;;5052816;28;20225;-57
2022/06/14 02:18:07;;;;;;;4.67;3.40;;;12.80;99.90;;;;;;5051985;28;20233;-58
2022/06/14 02:20:37;;;;;;;7.90;3.60;;;12.80;99.90;;;;;;5052508;28;20232;-58
2022/06/14 02:23:08;;;;;;;8.77;3.70;;;12.80;99.90;;;;;;5052328;28;20673;-58
2022/06/14 02:25:39;;;;;;;5.70;3.90;;;12.80;99.90;;;;;;5052083;28;20662;-58
2022/06/14 02:28:13;;;;;;;4.80;3.50;;;12.80;99.90;;;;;;5051907;28;20229;-57
2022/06/14 02:30:46;;;;;;;6.50;4.00;;;12.70;99.90;;;;;;5052008;28;20217;-58
2022/06/14 02:33:18;;;;;;;5.33;3.50;;;12.70;99.90;;;;;;5052385;28;20209;-57
2022/06/14 02:35:51;;;;;;;8.60;4.20;;;12.60;99.90;;;;;;5052013;28;20224;-57
2022/06/14 02:38:22;;;;;;;9.67;3.80;;;12.50;99.90;;;;;;5051749;28;20713;-57
2022/06/14 02:40:56;;;;;;;7.60;4.00;;;12.50;99.90;;;;;;5052332;28;20209;-57
2022/06/14 02:43:29;;;;;;;5.97;3.70;;;12.40;99.90;;;;;;5052124;28;20209;-57
2022/06/14 02:46:00;;;;;;;6.13;4.00;;;12.30;99.90;;;;;;5052157;28;20202;-57
2022/06/14 02:48:32;;;;;;;6.67;3.43;;;12.20;99.90;;;;;;5051831;28;20736;-58
2022/06/14 02:51:04;;;;;;;6.97;3.80;;;12.10;99.90;;;;;;5053366;28;20677;-57
2022/06/14 02:53:35;;;;;;;4.97;3.50;;;12.00;99.90;;;;;;5055559;28;20220;-57
2022/06/14 02:56:07;;;;;;;5.20;3.60;;;12.00;99.90;;;;;;5055660;28;20651;-57
2022/06/14 02:58:43;;;;;;;8.27;3.83;;;11.90;99.90;;;;;;5055662;28;20233;-57
2022/06/14 03:01:16;;;;;;;6.07;3.50;;;11.80;99.90;;;;;;5055620;28;20573;-57
2022/06/14 03:03:48;;;;;;;4.20;3.67;;;11.80;99.90;;;;;;5055388;28;20206;-57
2022/06/14 03:06:22;;;;;;;9.30;3.57;;;11.80;99.90;;;;;;5055130;28;20206;-58
2022/06/14 03:08:55;;;;;;;7.70;4.10;;;11.80;99.90;;;;;;5055137;28;20233;-58
2022/06/14 03:11:32;;;;;;;5.97;4.00;;;11.80;99.90;;;;;;5055091;28;20205;-58
2022/06/14 03:14:06;;;;;;;8.47;4.40;;;11.90;99.90;;;;;;5055537;28;20226;-59
2022/06/14 03:16:37;;;;;;;7.43;4.57;;;11.90;99.90;;;;;;5054900;28;20226;-58
2022/06/14 03:19:11;;;;;;;6.93;3.90;;;11.90;99.90;;;;;;5055121;28;20229;-57
2022/06/14 03:21:46;;;;;;;9.50;4.50;;;11.90;99.90;;;;;;5055167;28;20205;-58
2022/06/14 03:24:23;;;;;;;6.73;4.47;;;11.90;99.90;;;;;;5055177;28;20220;-58
2022/06/14 03:27:00;;;;;;;5.20;3.67;;;12.00;99.90;;;;;;5055160;28;20208;-57
2022/06/14 03:29:37;;;;;;;6.60;4.20;;;12.00;99.90;;;;;;5055532;28;20236;-57
2022/06/14 03:32:08;;;;;;;7.03;3.60;;;12.00;99.90;;;;;;5055647;28;20581;-57
2022/06/14 03:34:41;;;;;;;8.03;3.80;;;12.00;99.90;;;;;;5056059;28;20213;-57
2022/06/14 03:37:08;;;;;;;6.43;4.07;;;12.00;99.90;;;;;;5056281;28;20225;-58
2022/06/14 03:39:40;;;;;;;7.13;4.10;;;12.10;99.90;;;;;;5056379;28;20257;-58
2022/06/14 03:42:09;;;;;;;8.47;3.80;;;12.10;99.90;;;;;;5056417;28;20201;-57
2022/06/14 03:44:39;;;;;;;6.50;4.10;;;12.20;99.90;;;;;;5056188;28;20210;-58
2022/06/14 03:47:15;;;;;;;6.83;4.57;;;12.20;99.90;;;;;;5055335;28;20206;-58
2022/06/14 03:49:46;;;;;;;7.10;4.23;;;12.20;99.90;;;;;;5054666;28;20264;-58
2022/06/14 03:52:25;;;;;;;7.07;3.80;;;12.20;99.90;;;;;;5054716;28;20201;-58
2022/06/14 03:54:59;;;;;;;5.83;4.00;;;12.30;99.90;;;;;;5054809;28;20567;-58
2022/06/14 03:57:45;;;;;;;6.37;4.20;;;12.30;99.90;;;;;;5054487;28;20225;-58
2022/06/14 04:00:24;;;;;;;7.70;3.87;;;12.30;99.90;;;;;;5053726;28;20212;-58
2022/06/14 04:03:28;;;;;;;10.87;4.20;;;12.40;99.90;;;;;;5053976;28;20201;-58
2022/06/14 04:06:17;;;;;;;7.53;4.40;;;12.40;99.90;;;;;;5053904;28;20665;-58
2022/06/14 04:08:50;;;;;;;6.57;4.00;;;12.40;99.90;;;;;;5053557;28;20241;-58
2022/06/14 04:11:25;;;;;;;7.73;4.17;;;12.40;99.90;;;;;;5053974;28;20677;-58
2022/06/14 04:14:02;;;;;;;8.60;4.53;;;12.30;99.90;;;;;;5053917;28;20232;-59
2022/06/14 04:16:35;;;;;;;9.27;5.00;;;12.40;99.90;;;;;;5053685;28;20279;-57
2022/06/14 04:19:11;;;;;;;8.97;4.87;;;12.60;99.90;;;;;;5053599;28;20225;-57
2022/06/14 04:21:45;;;;;;;8.70;4.43;;;12.70;99.90;;;;;;5053779;28;20235;-57
2022/06/14 04:24:20;;;;;;;6.93;4.50;;;12.90;99.90;;;;;;5054007;28;20205;-58
2022/06/14 04:26:52;;;;;;;6.97;4.57;;;13.00;99.90;;;;;;5053662;28;20206;-57
2022/06/14 04:29:24;;;;;;;6.23;4.07;;;13.00;99.90;;;;;;5053132;28;20241;-58
2022/06/14 04:31:58;;;;;;;6.87;4.13;;;13.00;99.90;;;;;;5053873;28;20209;-57
2022/06/14 04:34:32;;;;;;;7.17;4.30;;;13.10;99.90;;;;;;5053957;28;20673;-57
2022/06/14 04:37:06;;;;;;;6.63;4.30;;;13.30;99.90;;;;;;5053352;28;20229;-58
2022/06/14 04:39:38;;;;;;;7.83;4.03;;;13.50;99.90;;;;;;5053222;28;20279;-57
2022/06/14 04:42:09;;;;;;;7.63;3.97;;;13.60;99.90;;;;;;5053890;28;20209;-57
2022/06/14 04:44:41;;;;;;;13.47;4.00;;;13.90;99.90;;;;;;5053292;28;20248;-57
2022/06/14 04:47:14;;;;;;;5.23;3.70;;;14.40;99.90;;;;;;5053572;28;20206;-57
2022/06/14 04:49:48;;;;;;;9.90;3.50;;;15.70;99.90;;;;;;5053299;28;20247;-58
2022/06/14 04:52:20;;;;;;;6.28;3.30;;;17.50;99.90;;;;;;5053780;28;20209;-58
2022/06/14 04:54:53;;;;;;;5.90;3.03;;;19.20;99.90;;;;;;5054103;28;20205;-58
2022/06/14 04:57:26;;;;;;;6.10;3.08;;;20.80;99.90;;;;;;5053959;28;20716;-58
2022/06/14 04:59:57;;;;;;;6.30;3.08;;;22.10;99.90;;;;;;5053051;28;20709;-58
2022/06/14 05:02:32;;;;;;;4.63;3.22;;;23.10;99.90;;;;;;5053410;28;20296;-58
2022/06/14 05:05:04;;;;;;;6.45;3.17;;;24.00;99.90;;;;;;5053663;28;20206;-59
2022/06/14 05:07:35;;;;;;;5.50;3.05;;;24.90;96.70;;;;;;5053367;28;20213;-58
2022/06/14 05:10:06;;;;;;;7.35;3.38;;;25.70;93.80;;;;;;5053746;28;20229;-58
2022/06/14 05:12:41;;;;;;;4.28;2.70;;;26.50;91.70;;;;;;5052707;28;20278;-58
2022/06/14 05:15:13;;;;;;;6.32;3.00;;;27.30;86.90;;;;;;5052152;28;20695;-58
2022/06/14 05:17:48;;;;;;;5.97;3.20;;;28.10;82.30;;;;;;5052497;28;20225;-58
2022/06/14 05:20:20;;;;;;;9.00;3.13;;;28.50;78.50;;;;;;5052725;28;20209;-58
2022/06/14 05:22:53;;;;;;;5.00;3.28;;;29.10;75.80;;;;;;5052445;28;20213;-58
2022/06/14 05:25:20;;;;;;;5.70;3.10;;;30.00;72.20;;;;;;5052592;28;20417;-58
2022/06/14 05:27:56;;;;;;;7.20;2.83;;;30.40;66.90;;;;;;5052055;28;20212;-58
2022/06/14 05:30:41;;;;;;;5.68;2.90;;;30.60;64.10;;;;;;5052584;28;20208;-58
2022/06/14 05:33:25;;;;;;;7.38;3.05;;;31.20;62.60;;;;;;5052355;28;20213;-58
2022/06/14 05:35:56;;;;;;;8.30;2.90;;;31.70;59.80;;;;;;5052004;28;20209;-58
2022/06/14 05:38:33;;;;;;;5.13;3.15;;;31.70;59.20;;;;;;5051786;28;20643;-57
2022/06/14 05:41:02;;;;;;;3.88;2.90;;;32.30;58.40;;;;;;5052245;28;20213;-58
2022/06/14 05:43:32;;;;;;;5.18;3.20;;;33.20;55.60;;;;;;5051971;28;20213;-58
2022/06/14 05:46:06;;;;;;;7.38;3.35;;;34.10;53.50;;;;;;5051963;28;20214;-58
2022/06/14 05:48:39;;;;;;;7.63;2.83;;;34.90;52.40;;;;;;5051569;28;20283;-58
2022/06/14 05:51:09;;;;;;;7.15;3.20;;;35.00;50.90;;;;;;5052039;28;20208;-58
2022/06/14 05:53:41;;;;;;;6.05;3.10;;;35.20;50.00;;;;;;5051865;28;20204;-58
2022/06/14 05:56:15;;;;;;;4.22;2.92;;;35.70;48.40;;;;;;5051728;28;20669;-58
2022/06/14 05:58:46;;;;;;;4.38;2.80;;;36.50;46.80;;;;;;5051675;28;20226;-58
2022/06/14 06:01:18;;;;;;;4.82;3.00;;;36.80;45.90;;;;;;5051755;28;20217;-58
2022/06/14 06:03:52;;;;;;;6.20;3.25;;;37.30;45.60;;;;;;5051849;28;20194;-58
2022/06/14 06:06:22;;;;;;;6.10;3.30;;;37.30;45.70;;;;;;5051828;28;20205;-58
2022/06/14 06:08:52;;;;;;;6.55;3.60;;;37.00;45.90;;;;;;5051588;28;20236;-58
2022/06/14 06:11:22;;;;;;;8.07;3.38;;;37.30;45.90;;;;;;5051869;28;20237;-58
2022/06/14 06:13:53;;;;;;;7.45;3.40;;;38.00;44.10;;;;;;5051980;28;20213;-58
2022/06/14 06:16:26;;;;;;;5.30;3.08;;;37.50;43.30;;;;;;5051831;28;20246;-58
2022/06/14 06:18:58;;;;;;;7.85;3.25;;;34.10;47.70;;;;;;5051677;28;20234;-58
2022/06/14 06:21:31;;;;;;;6.35;2.97;;;32.20;51.30;;;;;;5051800;28;20283;-58
2022/06/14 06:24:03;;;;;;;7.72;2.85;;;33.40;48.80;;;;;;5051578;28;20208;-58
2022/06/14 06:26:33;;;;;;;7.10;3.08;;;34.90;46.50;;;;;;5054201;28;20212;-58
2022/06/14 06:29:07;;;;;;;7.47;3.15;;;36.00;44.90;;;;;;5055311;28;20221;-58
2022/06/14 06:31:36;;;;;;;5.45;2.90;;;37.10;43.70;;;;;;5055302;28;20669;-59
2022/06/14 06:34:10;;;;;;;7.35;2.90;;;38.30;42.40;;;;;;5055545;28;20212;-58
2022/06/14 06:36:48;;;;;;;4.65;2.80;;;39.40;40.70;;;;;;5055801;28;20690;-60
2022/06/14 06:39:31;;;;;;;7.28;3.33;;;40.00;39.40;;;;;;5054332;28;20217;-63
2022/06/14 06:42:04;;;;;;;7.30;3.70;;;39.60;39.40;;;;;;5055710;28;20209;-62
2022/06/14 06:44:37;;;;;;;7.65;4.47;;;38.20;41.00;;;;;;5055699;28;20212;-62
2022/06/14 06:47:11;;;;;;;7.32;3.00;;;38.20;41.30;;;;;;5055395;28;20197;-62
2022/06/14 06:49:48;;;;;;;7.47;4.32;;;38.80;39.80;;;;;;5055529;28;20221;-62
2022/06/14 06:52:19;;;;;;;6.40;3.83;;;38.90;41.10;;;;;;5056020;28;20583;-62
2022/06/14 06:54:54;;;;;;;7.10;3.60;;;39.30;39.90;;;;;;5055944;28;20220;-62
2022/06/14 06:57:23;;;;;;;5.55;3.38;;;39.60;39.60;;;;;;5055481;28;20294;-62
2022/06/14 06:59:52;;;;;;;6.30;3.13;;;39.90;39.10;;;;;;5055089;28;20225;-62
2022/06/14 07:02:24;;;;;;;5.65;3.10;;;40.10;38.80;;;;;;5055254;28;20209;-62
2022/06/14 07:05:07;;;;;;;4.90;3.00;;;40.50;38.60;;;;;;5055918;28;20205;-63
2022/06/14 07:07:41;;;;;;;5.22;2.88;;;40.90;37.70;;;;;;5055877;28;20186;-62
2022/06/14 07:10:17;;;;;;;5.15;2.85;;;41.10;37.30;;;;;;5055242;28;20209;-62
2022/06/14 07:12:53;;;;;;;6.60;3.17;;;41.40;36.90;;;;;;5055690;28;20185;-62
2022/06/14 07:15:24;;;;;;;6.35;4.00;;;41.40;37.10;;;;;;5055874;28;20209;-63
2022/06/14 07:17:57;;;;;;;6.75;3.25;;;41.60;36.40;;;;;;5055322;28;20577;-62
2022/06/14 07:20:34;;;;;;;4.65;2.78;;;41.90;36.10;;;;;;5055632;28;20213;-61
2022/06/14 07:23:15;;;;;;;5.07;2.60;;;42.10;35.50;;;;;;5055647;28;20200;-61
2022/06/14 07:25:50;;;;;;;4.60;2.80;;;41.50;35.90;;;;;;5055658;28;20672;-63
2022/06/14 07:28:22;;;;;;;4.32;2.60;;;41.00;36.40;;;;;;5055294;28;20224;-62
2022/06/14 07:30:52;;;;;;;5.47;3.05;;;40.60;36.80;;;;;;5056195;28;20197;-62
2022/06/14 07:33:21;;;;;;;5.25;3.10;;;40.90;36.20;;;;;;5055801;28;20209;-62
2022/06/14 07:35:53;;;;;;;6.22;3.00;;;40.90;36.20;;;;;;5055182;28;20241;-63
2022/06/14 07:38:25;;;;;;;5.68;2.80;;;41.00;36.20;;;;;;5055233;28;20244;-61
2022/06/14 07:40:59;;;;;;;13.88;12.43;;;41.50;35.90;;;;;;5055714;28;20559;-61
2022/06/14 07:43:31;;;;;;;5.93;2.92;;;42.10;36.90;;;;;;5055533;28;20240;-62
2022/06/14 07:46:05;;;;;;;7.30;2.85;;;42.40;35.60;;;;;;5054791;28;20212;-64
2022/06/14 07:48:38;;;;;;;5.18;3.00;;;42.70;35.00;;;;;;5054344;28;20221;-63
2022/06/14 07:51:11;;;;;;;6.38;3.65;;;42.60;34.80;;;;;;5054541;28;20205;-63
2022/06/14 07:53:41;;;;;;;4.03;2.65;;;41.80;35.30;;;;;;5055127;28;20596;-62
2022/06/14 07:56:12;;;;;;;8.23;3.47;;;42.20;34.30;;;;;;5054922;28;20259;-63
2022/06/14 07:58:44;;;;;;;5.07;3.33;;;42.60;33.50;;;;;;5054405;28;20233;-62
2022/06/14 08:01:15;;;;;;;5.10;3.15;;;42.90;33.80;;;;;;5054726;28;20212;-62
2022/06/14 08:03:47;;;;;;;8.05;3.30;;;43.40;33.30;;;;;;5054956;28;20209;-63
2022/06/14 08:06:17;;;;;;;5.47;2.67;;;42.90;34.00;;;;;;5054733;28;20209;-62
2022/06/14 08:08:45;;;;;;;5.38;2.90;;;42.70;33.50;;;;;;5054599;28;20744;-63
2022/06/14 08:11:21;;;;;;;5.45;2.88;;;42.90;33.60;;;;;;5054687;28;20209;-63
2022/06/14 08:13:53;;;;;;;7.40;2.90;;;42.90;33.70;;;;;;5054453;28;20212;-62
2022/06/14 08:16:21;;;;;;;6.22;3.28;;;42.40;33.80;;;;;;5054435;28;20670;-63
2022/06/14 08:18:52;;;;;;;5.75;2.75;;;41.30;34.20;;;;;;5054292;28;20236;-62
2022/06/14 08:21:26;;;;;;;6.60;3.10;;;40.60;34.50;;;;;;5054422;28;20347;-62
2022/06/14 08:23:57;;;;;;;10.10;3.30;;;39.40;36.00;;;;;;5054564;28;20200;-62
2022/06/14 08:26:28;;;;;;;4.82;3.00;;;38.50;36.70;;;;;;5054547;28;20609;-63
2022/06/14 08:29:01;;;;;;;5.50;2.78;;;37.70;37.70;;;;;;5055441;28;20708;-62
2022/06/14 08:31:34;;;;;;;9.32;3.28;;;37.80;38.30;;;;;;5054530;28;20243;-62
2022/06/14 08:34:09;;;;;;;5.95;3.45;;;38.60;37.50;;;;;;5054917;28;20205;-63
2022/06/14 08:36:43;;;;;;;6.43;3.22;;;38.10;37.80;;;;;;5054858;28;20583;-62
2022/06/14 08:39:13;;;;;;;4.70;2.67;;;36.20;39.20;;;;;;5055212;28;20228;-62
2022/06/14 08:41:59;;;;;;;6.32;2.95;;;35.20;41.10;;;;;;5055646;28;20217;-62
2022/06/14 08:44:33;;;;;;;7.25;2.58;;;35.90;39.60;;;;;;5056193;28;20226;-61
2022/06/14 08:47:06;;;;;;;5.35;3.05;;;36.00;39.10;;;;;;5055614;28;20205;-60
2022/06/14 08:49:49;;;;;;;5.45;2.85;;;35.40;40.10;;;;;;5053223;28;20248;-63
2022/06/14 08:52:47;;;;;;;5.95;2.72;;;35.00;40.80;;;;;;5053215;28;20205;-62
2022/06/14 08:55:39;;;;;;;6.68;2.88;;;34.00;41.60;;;;;;5053075;28;20224;-61
2022/06/14 08:58:27;;;;;;;6.38;2.97;;;32.40;43.70;;;;;;5052280;28;20233;-60
2022/06/14 09:01:04;;;;;;;6.05;3.05;;;30.70;45.20;;;;;;4997477;28;20673;-61
2022/06/14 09:03:58;;;;;;;6.88;3.00;;;29.70;46.80;;;;;;5052328;28;20201;-62
2022/06/14 09:06:51;;;;;;;9.32;3.35;;;28.90;47.80;;;;;;5048162;28;20198;-60
2022/06/14 09:09:55;;;;;;;10.38;3.72;;;28.00;49.70;;;;;;5052141;28;20320;-62
2022/06/14 09:13:02;;;;;;;8.80;3.50;;;27.20;51.90;;;;;;5051808;28;20212;-61
2022/06/14 09:15:52;;;;;;;5.85;2.97;;;26.50;53.30;;;;;;5052282;28;20205;-61
2022/06/14 09:18:39;;;;;;;5.70;3.17;;;25.80;55.80;;;;;;5051963;28;20312;-61
2022/06/14 09:21:16;;;;;;;4.82;3.10;;;25.20;56.30;;;;;;5052107;28;20217;-62
2022/06/14 09:23:49;;;;;;;6.63;3.42;;;25.10;56.90;;;;;;5052922;28;20237;-62
2022/06/14 09:26:32;;;;;;;7.10;3.22;;;25.20;57.20;;;;;;5052342;28;20205;-60
2022/06/14 09:29:36;;;;;;;4.93;2.95;;;25.30;56.20;;;;;;5052039;28;20225;-61
2022/06/14 09:33:09;;;;;;;6.10;2.58;;;25.20;56.00;;;;;;5052757;28;20212;-61
2022/06/14 09:35:55;;;;;;;6.43;3.05;;;25.00;56.60;;;;;;5052427;28;20259;-61
2022/06/14 09:39:04;;;;;;;6.30;3.22;;;24.80;57.00;;;;;;5052519;28;20237;-62
2022/06/14 09:41:54;;;;;;;4.75;3.00;;;24.70;57.30;;;;;;5052760;28;20213;-61
2022/06/14 09:44:54;;;;;;;8.30;2.80;;;24.70;57.30;;;;;;5052533;28;20220;-61
2022/06/14 09:47:42;;;;;;;6.38;2.60;;;24.80;55.80;;;;;;5022408;28;20249;-61
2022/06/14 09:50:35;;;;;;;7.22;2.80;;;24.80;55.00;;;;;;5052161;28;20213;-60
2022/06/14 09:53:27;;;;;;;5.82;2.72;;;24.90;54.70;;;;;;5052676;28;20210;-60
2022/06/14 09:56:32;;;;;;;6.70;2.90;;;25.20;54.40;;;;;;5051818;28;20580;-60
2022/06/14 09:59:35;;;;;;;5.47;2.60;;;25.40;54.30;;;;;;4990000;28;20227;-60
2022/06/14 10:02:14;;;;;;;6.25;2.65;;;25.30;54.20;;;;;;5045982;28;20295;-60
2022/06/14 10:05:17;;;;;;;5.20;2.67;;;25.20;54.20;;;;;;5059011;28;20208;-61
2022/06/14 10:08:08;;;;;;;7.43;2.83;;;25.00;54.10;;;;;;5058122;28;20296;-60
2022/06/14 10:11:10;;;;;;;4.05;2.42;;;24.80;55.10;;;;;;5058174;28;20255;-61
2022/06/14 10:14:00;;;;;;;6.88;2.72;;;24.90;54.60;;;;;;5057670;28;20205;-60
2022/06/14 10:16:44;;;;;;;6.60;2.80;;;25.00;54.10;;;;;;5058980;28;20237;-61
2022/06/14 10:19:52;;;;;;;6.45;2.97;;;25.20;54.30;;;;;;5058540;28;20239;-61
2022/06/14 10:22:26;;;;;;;5.65;2.50;;;25.40;54.10;;;;;;5058211;28;20236;-61
2022/06/14 10:25:01;;;;;;;5.55;2.63;;;25.40;54.40;;;;;;5058499;28;20205;-61
2022/06/14 10:30:36;;;;;;;2.92;2.20;;;25.40;53.40;;;;;;5045117;28;20193;-64
2022/06/14 10:33:30;;;;;;;4.38;2.40;;;25.40;52.10;;;;;;5058533;28;20205;-64
2022/06/14 10:36:17;;;;;;;3.60;2.30;;;25.40;52.00;;;;;;5056948;28;20209;-64
2022/06/14 10:39:14;;;;;;;7.00;2.35;;;25.30;52.50;;;;;;5058367;28;20292;-63
2022/06/14 10:41:46;;;;;;;6.20;2.20;;;25.20;52.00;;;;;;5058074;28;20216;-62
2022/06/14 10:44:20;;;;;;;5.18;2.80;;;25.20;52.50;;;;;;5058676;28;20351;-65
2022/06/14 10:46:57;;;;;;;4.97;2.45;;;25.30;53.50;;;;;;5059503;28;20243;-62
2022/06/14 10:49:48;;;;;;;4.50;2.25;;;25.40;52.50;;;;;;5059095;28;20307;-67
2022/06/14 10:52:46;;;;;;;5.03;2.65;;;25.40;53.00;;;;;;5058839;28;20205;-62
2022/06/14 10:56:04;;;;;;;4.00;2.40;;;25.30;53.80;;;;;;5060203;28;20205;-64
2022/06/14 10:58:58;;;;;;;4.65;2.33;;;25.30;53.70;;;;;;5034137;28;20241;-64
2022/06/14 11:01:37;;;;;;;5.50;2.58;;;25.30;53.80;;;;;;5060086;28;20380;-64
2022/06/14 11:04:12;;;;;;;5.65;2.80;;;25.40;54.40;;;;;;5059829;28;20185;-64
2022/06/14 11:06:59;;;;;;;4.60;2.22;;;25.50;54.00;;;;;;5059992;28;20212;-65
2022/06/14 11:09:39;;;;;;;5.68;2.53;;;25.50;53.50;;;;;;5059913;28;20233;-67
2022/06/14 11:12:26;;;;;;;4.45;2.55;;;25.60;53.10;;;;;;5056722;28;20206;-65
2022/06/14 11:15:15;;;;;;;5.35;2.72;;;25.70;54.10;;;;;;5056522;28;20216;-65
2022/06/14 11:18:04;;;;;;;7.32;2.75;;;25.80;53.60;;;;;;5056357;28;20288;-62
2022/06/14 11:20:47;;;;;;;6.80;2.70;;;26.00;53.30;;;;;;5056647;28;20209;-63
2022/06/14 11:23:22;;;;;;;3.97;2.45;;;26.20;52.80;;;;;;5056214;28;20205;-62
2022/06/14 11:25:58;;;;;;;5.97;2.88;;;26.40;53.50;;;;;;5055726;28;20205;-61
2022/06/14 11:28:36;;;;;;;5.63;2.53;;;26.40;54.50;;;;;;5055102;28;20291;-61
2022/06/14 11:31:12;;;;;;;5.25;2.75;;;26.30;54.50;;;;;;5055211;28;20590;-61
2022/06/14 11:33:57;;;;;;;4.82;2.58;;;26.20;54.10;;;;;;5055253;28;20288;-61
2022/06/14 11:36:38;;;;;;;5.72;2.60;;;26.20;53.90;;;;;;5055150;28;20216;-61
2022/06/14 11:39:23;;;;;;;6.45;2.60;;;26.40;52.80;;;;;;5054639;28;20315;-61
2022/06/14 11:41:52;;;;;;;4.43;2.42;;;26.60;52.50;;;;;;5054947;28;20216;-61
2022/06/14 11:44:55;;;;;;;7.18;2.75;;;26.80;51.90;;;;;;5054988;28;20309;-61
2022/06/14 11:47:30;;;;;;;5.50;2.58;;;26.90;51.40;;;;;;5035939;28;20205;-61
2022/06/14 11:50:06;;;;;;;4.38;2.15;;;27.10;51.00;;;;;;5055577;28;20225;-61
2022/06/14 11:52:54;;;;;;;5.65;2.58;;;27.10;51.70;;;;;;5054918;28;20311;-62
2022/06/14 11:55:28;;;;;;;3.30;2.38;;;27.00;51.60;;;;;;5054990;28;20216;-62
2022/06/14 11:58:12;;;;;;;5.32;2.40;;;27.00;51.40;;;;;;5054767;28;20224;-61
2022/06/14 12:00:52;;;;;;;4.35;2.80;;;26.80;51.80;;;;;;5054273;28;20224;-61
2022/06/14 12:03:36;;;;;;;4.22;2.80;;;26.70;52.30;;;;;;5053959;28;20673;-61
2022/06/14 12:06:08;;;;;;;6.35;2.80;;;26.80;52.20;;;;;;5054293;28;20216;-61
2022/06/14 12:08:53;;;;;;;4.38;2.58;;;27.00;51.60;;;;;;5053630;28;20616;-61
2022/06/14 12:11:25;;;;;;;4.43;2.75;;;27.20;51.20;;;;;;5054175;28;20205;-61
2022/06/14 12:14:16;;;;;;;4.45;2.40;;;27.30;51.50;;;;;;5053799;28;20213;-61
2022/06/14 12:16:45;;;;;;;7.50;2.63;;;27.50;50.80;;;;;;5054294;28;20212;-61
2022/06/14 12:19:15;;;;;;;5.10;2.60;;;27.60;50.70;;;;;;5053247;28;20230;-61
2022/06/14 12:21:57;;;;;;;6.43;2.38;;;27.70;50.30;;;;;;5053876;28;20213;-60
2022/06/14 12:26:34;;;;;;;4.85;2.72;;;27.70;49.60;;;;;;5052411;28;20572;-61
2022/06/14 12:27:18;;;;;;;4.63;2.38;;;27.60;50.00;;;;;;5053154;28;20209;-61
2022/06/14 12:29:49;;;;;;;4.90;2.50;;;27.50;50.60;;;;;;5053403;28;20222;-61
2022/06/14 12:32:23;;;;;;;6.50;2.50;;;27.50;50.60;;;;;;5053751;28;20209;-61
2022/06/14 12:34:54;;;;;;;4.82;2.42;;;27.50;50.70;;;;;;5053470;28;20198;-60
2022/06/14 12:37:30;;;;;;;4.15;2.25;;;27.40;51.20;;;;;;5053701;28;20213;-61
2022/06/14 12:40:04;;;;;;;4.45;2.35;;;27.30;50.10;;;;;;5052833;28;20705;-61
2022/06/14 12:42:40;;;;;;;5.32;2.40;;;27.30;49.70;;;;;;5053320;28;20288;-61
2022/06/14 12:45:14;;;;;;;4.35;2.55;;;27.30;50.30;;;;;;5053493;28;20687;-61
2022/06/14 12:47:54;;;;;;;3.33;2.35;;;27.40;50.20;;;;;;5053118;28;20215;-61
2022/06/14 12:50:24;;;;;;;3.88;2.25;;;27.50;50.10;;;;;;5052899;28;20212;-61
2022/06/14 12:52:56;;;;;;;6.13;2.42;;;27.60;49.90;;;;;;5053037;28;20488;-61
2022/06/14 12:55:27;;;;;;;4.72;2.58;;;27.60;49.90;;;;;;5053272;28;20214;-62
2022/06/14 12:58:14;;;;;;;5.68;2.38;;;27.70;49.30;;;;;;5052809;28;20229;-61
2022/06/14 13:00:47;;;;;;;5.05;2.40;;;27.60;49.70;;;;;;5052786;28;20210;-62
2022/06/14 13:03:31;;;;;;;8.13;2.45;;;27.50;49.80;;;;;;5052949;28;20208;-61
2022/06/14 13:06:05;;;;;;;6.47;2.58;;;27.60;50.40;;;;;;5052976;28;20296;-62
2022/06/14 13:08:43;;;;;;;4.90;2.47;;;27.70;49.80;;;;;;5052924;28;20918;-61
2022/06/14 13:11:18;;;;;;;3.95;2.22;;;27.80;49.80;;;;;;5053160;28;20209;-61
2022/06/14 13:14:06;;;;;;;5.22;2.30;;;27.80;50.40;;;;;;5052816;28;20205;-62
2022/06/14 13:16:47;;;;;;;4.03;2.60;;;27.90;50.20;;;;;;5053093;28;20213;-62
2022/06/14 13:19:23;;;;;;;4.45;2.30;;;28.10;49.50;;;;;;5052593;28;20269;-60
2022/06/14 13:22:11;;;;;;;3.95;2.15;;;28.20;49.80;;;;;;5052974;28;20208;-62
2022/06/14 13:24:50;;;;;;;5.93;2.28;;;28.20;50.00;;;;;;5053174;28;20210;-62
2022/06/14 13:27:29;;;;;;;4.53;2.42;;;28.30;49.50;;;;;;5052503;28;20205;-62
2022/06/14 13:30:09;;;;;;;3.10;2.28;;;28.50;49.50;;;;;;5052745;28;20228;-62
2022/06/14 13:32:54;;;;;;;4.80;2.40;;;28.50;48.90;;;;;;5052931;28;20210;-62
2022/06/14 13:35:42;;;;;;;4.50;2.38;;;28.40;48.80;;;;;;5052105;28;20247;-62
2022/06/14 13:38:13;;;;;;;4.45;2.35;;;28.50;48.10;;;;;;5052865;28;20248;-62
2022/06/14 13:40:44;;;;;;;5.80;2.45;;;28.60;47.60;;;;;;5052315;28;20202;-62